Nearby METAR Reports

 

KMLI - Moline/Quad City, Illinois, USA
Distance from station: ENE 4mi, 7km
Updated: 08/05/2020 4:52am
Clear
Clear
 Wind from calm
Wind: Calm
Temperature: 54°F , 12°C
Dew Point: 52°F , 11°C
Humidity: 94%
Barometer: 30.11 inHg , 1019.6 hPa
Clouds: Clear
Visibility: 10 miles , 16 km
2020/08/05 09:52 KMLI 050952Z AUTO 00000KT 10SM CLR 12/11 A3011 RMK AO2 SLP193 T01220106
KDVN - Davenport/Quad C, Iowa, USA
Distance from station: N 14mi, 22km
Updated: 08/05/2020 4:52am
Clear
Clear
 Wind from S
Wind: S 3 mph , 6 km/h
Temperature: 54°F , 12°C
Dew Point: 52°F , 11°C
Humidity: 94%
Barometer: 30.12 inHg , 1020 hPa
Clouds: Clear
Visibility: 10 miles , 16 km
2020/08/05 09:52 KDVN 050952Z AUTO 19003KT 10SM CLR 12/11 A3012 RMK AO2 SLP196 T01220106
 
KMUT - Muscatine, Iowa, USA
Distance from station: W 29mi, 47km
Updated: 08/05/2020 5:15am
Clear
Clear
 Wind from calm
Wind: Calm
Temperature: 54°F , 12°C
Dew Point: 52°F , 11°C
Humidity: 94%
Barometer: 30.12 inHg , 1020 hPa
Clouds: Clear
Visibility: 10 miles , 16 km
2020/08/05 10:15 KMUT 051015Z AUTO 00000KT 10SM CLR 12/11 A3012 RMK AO2
KCWI - Clinton Muni, Iowa, USA
Distance from station: NNE 31mi, 50km
Updated: 08/05/2020 4:56am
Partly cloudy
Partly cloudy
 Wind from SW
Wind: SW 3 mph , 6 km/h
Temperature: 54°F , 12°C
Dew Point: 54°F , 12°C
Humidity: 100%
Barometer: 30.11 inHg , 1019.6 hPa
Clouds: Partly cloudy
Visibility: 10 miles , 16 km
Cloud details: Partly cloudy 7000 ft
2020/08/05 09:56 KCWI 050956Z AUTO 23003KT 10SM SCT070 12/12 A3011 RMK AO2 SLP198 T01170117
 
KGBG - Galesburg, Illinois, USA
Distance from station: SSE 35mi, 56km
Updated: 08/05/2020 5:15am
Clear
Clear
 Wind from calm
Wind: Calm
Temperature: 50°F , 10°C
Dew Point: 50°F , 10°C
Humidity: 100%
Barometer: 30.13 inHg , 1020.3 hPa
Clouds: Clear
Visibility: 10 miles , 16 km
2020/08/05 10:15 KGBG 051015Z AUTO 00000KT 10SM CLR 10/10 A3013 RMK AO2 T01000098
KSFY - Savanna/Tritown, Illinois, USA
Distance from station: NNE 50mi, 80km
Updated: 08/05/2020 5:15am
Partly cloudy
Partly cloudy
 Wind from calm
Wind: Calm
Temperature: 52°F , 11°C
Dew Point: 52°F , 11°C
Humidity: 100%
Barometer: 30.11 inHg , 1019.6 hPa
Clouds: Partly cloudy
Visibility: 10 miles , 16 km
Cloud details: Partly cloudy 6000 ft
2020/08/05 10:15 KSFY 051015Z AUTO 00000KT 10SM SCT060 11/11 A3011 RMK AO2